sensor_id;sensor_type;location;lat;lon;timestamp;temperature;humidity
7206;DHT22;3644;53.480;10.004;2023-02-12T00:01:48;9.30;99.90
7206;DHT22;3644;53.480;10.004;2023-02-12T00:04:13;9.30;99.90
7206;DHT22;3644;53.480;10.004;2023-02-12T00:06:39;9.40;99.90
7206;DHT22;3644;53.480;10.004;2023-02-12T00:09:04;9.30;99.90
7206;DHT22;3644;53.480;10.004;2023-02-12T00:11:30;9.40;99.90
7206;DHT22;3644;53.480;10.004;2023-02-12T00:13:57;9.40;99.90
7206;DHT22;3644;53.480;10.004;2023-02-12T00:16:25;9.40;99.90
7206;DHT22;3644;53.480;10.004;2023-02-12T00:18:53;9.50;99.90
7206;DHT22;3644;53.480;10.004;2023-02-12T00:21:19;9.50;99.90
7206;DHT22;3644;53.480;10.004;2023-02-12T00:23:45;9.30;99.90
7206;DHT22;3644;53.480;10.004;2023-02-12T00:26:13;9.40;99.90
7206;DHT22;3644;53.480;10.004;2023-02-12T00:28:39;9.30;99.90
7206;DHT22;3644;53.480;10.004;2023-02-12T00:31:13;9.30;99.90
7206;DHT22;3644;53.480;10.004;2023-02-12T00:33:39;9.40;99.90
7206;DHT22;3644;53.480;10.004;2023-02-12T00:36:05;9.40;99.90
7206;DHT22;3644;53.480;10.004;2023-02-12T00:38:31;9.30;99.90
7206;DHT22;3644;53.480;10.004;2023-02-12T00:40:57;9.30;99.90
7206;DHT22;3644;53.480;10.004;2023-02-12T00:43:22;9.20;99.90
7206;DHT22;3644;53.480;10.004;2023-02-12T00:45:48;9.20;99.90
7206;DHT22;3644;53.480;10.004;2023-02-12T00:48:14;9.10;99.90
7206;DHT22;3644;53.480;10.004;2023-02-12T00:50:39;9.20;99.90
7206;DHT22;3644;53.480;10.004;2023-02-12T00:53:09;9.30;99.90
7206;DHT22;3644;53.480;10.004;2023-02-12T00:55:34;9.20;99.90
7206;DHT22;3644;53.480;10.004;2023-02-12T00:58:00;9.20;99.90
7206;DHT22;3644;53.480;10.004;2023-02-12T01:00:25;9.30;99.90
7206;DHT22;3644;53.480;10.004;2023-02-12T01:02:51;9.10;99.90
7206;DHT22;3644;53.480;10.004;2023-02-12T01:05:17;9.10;99.90
7206;DHT22;3644;53.480;10.004;2023-02-12T01:07:47;9.20;99.90
7206;DHT22;3644;53.480;10.004;2023-02-12T01:10:13;9.20;99.90
7206;DHT22;3644;53.480;10.004;2023-02-12T01:12:38;9.20;99.90
7206;DHT22;3644;53.480;10.004;2023-02-12T01:15:04;9.20;99.90
7206;DHT22;3644;53.480;10.004;2023-02-12T01:17:29;9.10;99.90
7206;DHT22;3644;53.480;10.004;2023-02-12T01:19:58;9.00;99.90
7206;DHT22;3644;53.480;10.004;2023-02-12T01:22:24;9.00;99.90
7206;DHT22;3644;53.480;10.004;2023-02-12T01:24:49;9.10;99.90
7206;DHT22;3644;53.480;10.004;2023-02-12T01:27:15;9.10;99.90
7206;DHT22;3644;53.480;10.004;2023-02-12T01:29:40;9.00;99.90
7206;DHT22;3644;53.480;10.004;2023-02-12T01:32:09;9.20;99.90
7206;DHT22;3644;53.480;10.004;2023-02-12T01:34:35;9.20;99.90
7206;DHT22;3644;53.480;10.004;2023-02-12T01:37:01;9.20;99.90
7206;DHT22;3644;53.480;10.004;2023-02-12T01:39:26;9.20;99.90
7206;DHT22;3644;53.480;10.004;2023-02-12T01:41:52;9.20;99.90
7206;DHT22;3644;53.480;10.004;2023-02-12T01:44:19;9.10;99.90
7206;DHT22;3644;53.480;10.004;2023-02-12T01:46:47;9.10;99.90
7206;DHT22;3644;53.480;10.004;2023-02-12T01:49:25;9.10;99.90
7206;DHT22;3644;53.480;10.004;2023-02-12T01:51:58;8.90;99.90
7206;DHT22;3644;53.480;10.004;2023-02-12T01:54:26;8.90;99.90
7206;DHT22;3644;53.480;10.004;2023-02-12T01:56:53;9.00;99.90
7206;DHT22;3644;53.480;10.004;2023-02-12T01:59:19;8.90;99.90
7206;DHT22;3644;53.480;10.004;2023-02-12T02:01:45;8.70;99.90
7206;DHT22;3644;53.480;10.004;2023-02-12T02:04:14;8.70;99.90
7206;DHT22;3644;53.480;10.004;2023-02-12T02:06:47;8.50;99.90
7206;DHT22;3644;53.480;10.004;2023-02-12T02:09:15;8.70;99.90
7206;DHT22;3644;53.480;10.004;2023-02-12T02:11:41;8.70;99.90
7206;DHT22;3644;53.480;10.004;2023-02-12T02:14:25;8.60;99.90
7206;DHT22;3644;53.480;10.004;2023-02-12T02:17:23;8.60;99.90
7206;DHT22;3644;53.480;10.004;2023-02-12T02:32:49;8.70;99.90
7206;DHT22;3644;53.480;10.004;2023-02-12T02:35:02;8.70;99.90
7206;DHT22;3644;53.480;10.004;2023-02-12T02:37:39;8.80;99.90
7206;DHT22;3644;53.480;10.004;2023-02-12T02:40:25;8.70;99.90
7206;DHT22;3644;53.480;10.004;2023-02-12T02:42:56;8.70;99.90
7206;DHT22;3644;53.480;10.004;2023-02-12T02:45:30;8.80;99.90
7206;DHT22;3644;53.480;10.004;2023-02-12T02:50:40;8.90;99.90
7206;DHT22;3644;53.480;10.004;2023-02-12T02:53:18;9.00;99.90
7206;DHT22;3644;53.480;10.004;2023-02-12T02:55:50;8.90;99.90
7206;DHT22;3644;53.480;10.004;2023-02-12T02:58:21;8.70;99.90
7206;DHT22;3644;53.480;10.004;2023-02-12T03:03:46;8.60;99.90
7206;DHT22;3644;53.480;10.004;2023-02-12T03:08:53;8.80;99.90
7206;DHT22;3644;53.480;10.004;2023-02-12T03:11:31;8.70;99.90
7206;DHT22;3644;53.480;10.004;2023-02-12T03:14:08;9.00;99.90
7206;DHT22;3644;53.480;10.004;2023-02-12T03:16:48;8.80;99.90
7206;DHT22;3644;53.480;10.004;2023-02-12T03:19:21;8.80;99.90
7206;DHT22;3644;53.480;10.004;2023-02-12T03:22:00;8.90;99.90
7206;DHT22;3644;53.480;10.004;2023-02-12T03:24:34;8.80;99.90
7206;DHT22;3644;53.480;10.004;2023-02-12T03:27:16;9.00;99.90
7206;DHT22;3644;53.480;10.004;2023-02-12T03:29:43;8.80;99.90
7206;DHT22;3644;53.480;10.004;2023-02-12T03:35:21;8.60;99.90
7206;DHT22;3644;53.480;10.004;2023-02-12T03:38:22;8.70;99.90
7206;DHT22;3644;53.480;10.004;2023-02-12T03:40:58;8.90;99.90
7206;DHT22;3644;53.480;10.004;2023-02-12T03:43:31;8.90;99.90
7206;DHT22;3644;53.480;10.004;2023-02-12T03:48:57;9.00;99.90
7206;DHT22;3644;53.480;10.004;2023-02-12T03:51:29;9.10;99.90
7206;DHT22;3644;53.480;10.004;2023-02-12T03:53:57;9.10;99.90
7206;DHT22;3644;53.480;10.004;2023-02-12T03:56:31;9.10;99.90
7206;DHT22;3644;53.480;10.004;2023-02-12T03:58:57;9.00;99.90
7206;DHT22;3644;53.480;10.004;2023-02-12T04:01:23;9.20;99.90
7206;DHT22;3644;53.480;10.004;2023-02-12T04:03:48;9.20;99.90
7206;DHT22;3644;53.480;10.004;2023-02-12T04:06:23;9.20;99.90
7206;DHT22;3644;53.480;10.004;2023-02-12T04:08:50;9.20;99.90
7206;DHT22;3644;53.480;10.004;2023-02-12T04:14:24;9.00;99.90
7206;DHT22;3644;53.480;10.004;2023-02-12T04:16:59;9.10;99.90
7206;DHT22;3644;53.480;10.004;2023-02-12T04:22:54;9.00;99.90
7206;DHT22;3644;53.480;10.004;2023-02-12T04:31:30;8.90;99.90
7206;DHT22;3644;53.480;10.004;2023-02-12T04:34:14;8.80;99.90
7206;DHT22;3644;53.480;10.004;2023-02-12T04:36:48;8.80;99.90
7206;DHT22;3644;53.480;10.004;2023-02-12T04:39:20;8.80;99.90
7206;DHT22;3644;53.480;10.004;2023-02-12T04:41:46;8.90;99.90
7206;DHT22;3644;53.480;10.004;2023-02-12T04:44:23;9.10;99.90
7206;DHT22;3644;53.480;10.004;2023-02-12T04:46:49;9.10;99.90
7206;DHT22;3644;53.480;10.004;2023-02-12T04:49:17;9.10;99.90
7206;DHT22;3644;53.480;10.004;2023-02-12T04:51:43;9.20;99.90
7206;DHT22;3644;53.480;10.004;2023-02-12T04:54:09;9.30;99.90
7206;DHT22;3644;53.480;10.004;2023-02-12T04:56:35;9.40;99.90
7206;DHT22;3644;53.480;10.004;2023-02-12T04:59:00;9.40;99.90
7206;DHT22;3644;53.480;10.004;2023-02-12T05:01:26;9.40;99.90
7206;DHT22;3644;53.480;10.004;2023-02-12T05:03:52;9.50;99.90
7206;DHT22;3644;53.480;10.004;2023-02-12T05:06:18;9.50;99.90
7206;DHT22;3644;53.480;10.004;2023-02-12T05:08:43;9.30;99.90
7206;DHT22;3644;53.480;10.004;2023-02-12T05:11:09;9.40;99.90
7206;DHT22;3644;53.480;10.004;2023-02-12T05:13:36;9.40;99.90
7206;DHT22;3644;53.480;10.004;2023-02-12T05:16:06;9.40;99.90
7206;DHT22;3644;53.480;10.004;2023-02-12T05:18:32;9.50;99.90
7206;DHT22;3644;53.480;10.004;2023-02-12T05:21:00;9.50;99.90
7206;DHT22;3644;53.480;10.004;2023-02-12T05:23:27;9.70;99.90
7206;DHT22;3644;53.480;10.004;2023-02-12T05:25:53;9.70;99.90
7206;DHT22;3644;53.480;10.004;2023-02-12T05:28:19;9.60;99.90
7206;DHT22;3644;53.480;10.004;2023-02-12T05:30:45;9.70;99.90
7206;DHT22;3644;53.480;10.004;2023-02-12T05:33:10;9.70;99.90
7206;DHT22;3644;53.480;10.004;2023-02-12T05:35:36;9.70;99.90
7206;DHT22;3644;53.480;10.004;2023-02-12T05:38:01;9.80;99.90
7206;DHT22;3644;53.480;10.004;2023-02-12T05:40:27;9.80;99.90
7206;DHT22;3644;53.480;10.004;2023-02-12T05:42:52;9.80;99.90
7206;DHT22;3644;53.480;10.004;2023-02-12T05:45:18;9.80;99.90
7206;DHT22;3644;53.480;10.004;2023-02-12T05:47:43;9.80;99.90
7206;DHT22;3644;53.480;10.004;2023-02-12T05:50:09;9.80;99.90
7206;DHT22;3644;53.480;10.004;2023-02-12T05:52:35;9.80;99.90
7206;DHT22;3644;53.480;10.004;2023-02-12T05:55:00;9.80;99.90
7206;DHT22;3644;53.480;10.004;2023-02-12T05:57:26;9.90;99.90
7206;DHT22;3644;53.480;10.004;2023-02-12T05:59:51;9.80;99.90
7206;DHT22;3644;53.480;10.004;2023-02-12T06:02:17;9.80;99.90
7206;DHT22;3644;53.480;10.004;2023-02-12T06:04:43;9.70;99.90
7206;DHT22;3644;53.480;10.004;2023-02-12T06:07:08;9.80;99.90
7206;DHT22;3644;53.480;10.004;2023-02-12T06:09:34;9.80;99.90
7206;DHT22;3644;53.480;10.004;2023-02-12T06:11:59;9.80;99.90
7206;DHT22;3644;53.480;10.004;2023-02-12T06:14:25;9.90;99.90
7206;DHT22;3644;53.480;10.004;2023-02-12T06:16:51;9.90;99.90
7206;DHT22;3644;53.480;10.004;2023-02-12T06:19:18;9.90;99.90
7206;DHT22;3644;53.480;10.004;2023-02-12T06:21:44;9.90;99.90
7206;DHT22;3644;53.480;10.004;2023-02-12T06:24:15;9.70;99.90
7206;DHT22;3644;53.480;10.004;2023-02-12T06:26:41;9.80;99.90
7206;DHT22;3644;53.480;10.004;2023-02-12T06:29:06;9.80;99.90
7206;DHT22;3644;53.480;10.004;2023-02-12T06:31:34;9.90;99.90
7206;DHT22;3644;53.480;10.004;2023-02-12T06:34:02;9.90;99.90
7206;DHT22;3644;53.480;10.004;2023-02-12T06:36:28;9.90;99.90
7206;DHT22;3644;53.480;10.004;2023-02-12T06:38:54;9.90;99.90
7206;DHT22;3644;53.480;10.004;2023-02-12T06:41:20;9.80;99.90
7206;DHT22;3644;53.480;10.004;2023-02-12T06:43:46;9.80;99.90
7206;DHT22;3644;53.480;10.004;2023-02-12T06:46:12;9.80;99.90
7206;DHT22;3644;53.480;10.004;2023-02-12T06:48:38;9.90;99.90
7206;DHT22;3644;53.480;10.004;2023-02-12T06:51:09;9.90;99.90
7206;DHT22;3644;53.480;10.004;2023-02-12T06:53:35;9.90;99.90
7206;DHT22;3644;53.480;10.004;2023-02-12T06:56:03;10.00;99.90
7206;DHT22;3644;53.480;10.004;2023-02-12T06:58:29;10.00;99.90
7206;DHT22;3644;53.480;10.004;2023-02-12T07:00:54;10.00;99.90
7206;DHT22;3644;53.480;10.004;2023-02-12T07:03:20;10.00;99.90
7206;DHT22;3644;53.480;10.004;2023-02-12T07:05:45;10.00;99.90
7206;DHT22;3644;53.480;10.004;2023-02-12T07:08:12;10.00;99.90
7206;DHT22;3644;53.480;10.004;2023-02-12T07:10:38;9.90;99.90
7206;DHT22;3644;53.480;10.004;2023-02-12T07:13:04;9.70;99.90
7206;DHT22;3644;53.480;10.004;2023-02-12T07:15:29;9.80;99.90
7206;DHT22;3644;53.480;10.004;2023-02-12T07:17:55;9.90;99.90
7206;DHT22;3644;53.480;10.004;2023-02-12T07:20:20;9.80;99.90
7206;DHT22;3644;53.480;10.004;2023-02-12T07:22:46;9.70;99.90
7206;DHT22;3644;53.480;10.004;2023-02-12T07:25:11;9.70;99.90
7206;DHT22;3644;53.480;10.004;2023-02-12T07:27:38;9.80;99.90
7206;DHT22;3644;53.480;10.004;2023-02-12T07:30:04;9.80;99.90
7206;DHT22;3644;53.480;10.004;2023-02-12T07:32:32;10.00;99.90
7206;DHT22;3644;53.480;10.004;2023-02-12T07:34:57;9.90;99.90
7206;DHT22;3644;53.480;10.004;2023-02-12T07:37:24;10.00;99.90
7206;DHT22;3644;53.480;10.004;2023-02-12T07:39:49;9.90;99.90
7206;DHT22;3644;53.480;10.004;2023-02-12T07:42:15;9.90;99.90
7206;DHT22;3644;53.480;10.004;2023-02-12T07:44:41;10.00;99.90
7206;DHT22;3644;53.480;10.004;2023-02-12T07:47:07;9.90;99.90
7206;DHT22;3644;53.480;10.004;2023-02-12T07:49:32;9.80;99.90
7206;DHT22;3644;53.480;10.004;2023-02-12T07:51:58;9.80;99.90
7206;DHT22;3644;53.480;10.004;2023-02-12T07:54:23;9.70;99.90
7206;DHT22;3644;53.480;10.004;2023-02-12T07:56:49;9.80;99.90
7206;DHT22;3644;53.480;10.004;2023-02-12T07:59:17;9.80;99.90
7206;DHT22;3644;53.480;10.004;2023-02-12T08:01:48;9.80;99.90
7206;DHT22;3644;53.480;10.004;2023-02-12T08:04:16;9.70;99.90
7206;DHT22;3644;53.480;10.004;2023-02-12T08:06:44;9.80;99.90
7206;DHT22;3644;53.480;10.004;2023-02-12T08:09:13;9.90;99.90
7206;DHT22;3644;53.480;10.004;2023-02-12T08:11:40;9.80;99.90
7206;DHT22;3644;53.480;10.004;2023-02-12T08:14:06;9.90;99.90
7206;DHT22;3644;53.480;10.004;2023-02-12T08:16:36;9.80;99.90
7206;DHT22;3644;53.480;10.004;2023-02-12T08:19:01;9.80;99.90
7206;DHT22;3644;53.480;10.004;2023-02-12T08:21:27;9.90;99.90
7206;DHT22;3644;53.480;10.004;2023-02-12T08:23:54;10.00;99.90
7206;DHT22;3644;53.480;10.004;2023-02-12T08:28:59;10.10;99.90
7206;DHT22;3644;53.480;10.004;2023-02-12T08:31:29;10.10;99.90
7206;DHT22;3644;53.480;10.004;2023-02-12T08:33:55;10.10;99.90
7206;DHT22;3644;53.480;10.004;2023-02-12T08:36:23;10.10;99.90
7206;DHT22;3644;53.480;10.004;2023-02-12T08:38:50;10.10;99.90
7206;DHT22;3644;53.480;10.004;2023-02-12T08:41:18;10.10;99.90
7206;DHT22;3644;53.480;10.004;2023-02-12T08:43:43;10.20;99.90
7206;DHT22;3644;53.480;10.004;2023-02-12T08:46:12;10.20;99.90
7206;DHT22;3644;53.480;10.004;2023-02-12T08:48:38;10.30;99.90
7206;DHT22;3644;53.480;10.004;2023-02-12T08:51:07;10.20;99.90
7206;DHT22;3644;53.480;10.004;2023-02-12T08:53:33;10.30;99.90
7206;DHT22;3644;53.480;10.004;2023-02-12T08:55:59;10.30;99.90
7206;DHT22;3644;53.480;10.004;2023-02-12T08:58:24;10.30;99.90
7206;DHT22;3644;53.480;10.004;2023-02-12T09:00:50;11.40;99.90
7206;DHT22;3644;53.480;10.004;2023-02-12T09:03:16;10.40;99.90
7206;DHT22;3644;53.480;10.004;2023-02-12T09:05:41;10.30;99.90
7206;DHT22;3644;53.480;10.004;2023-02-12T09:08:07;10.30;99.90
7206;DHT22;3644;53.480;10.004;2023-02-12T09:10:37;10.30;99.90
7206;DHT22;3644;53.480;10.004;2023-02-12T09:13:03;10.40;99.90
7206;DHT22;3644;53.480;10.004;2023-02-12T09:15:28;10.40;99.90
7206;DHT22;3644;53.480;10.004;2023-02-12T09:17:54;10.30;99.90
7206;DHT22;3644;53.480;10.004;2023-02-12T09:20:19;10.30;99.90
7206;DHT22;3644;53.480;10.004;2023-02-12T09:22:45;10.30;99.90
7206;DHT22;3644;53.480;10.004;2023-02-12T09:25:10;10.30;99.90
7206;DHT22;3644;53.480;10.004;2023-02-12T09:27:36;10.30;99.90
7206;DHT22;3644;53.480;10.004;2023-02-12T09:30:01;10.30;99.90
7206;DHT22;3644;53.480;10.004;2023-02-12T09:32:27;10.30;99.90
7206;DHT22;3644;53.480;10.004;2023-02-12T09:34:52;10.40;99.90
7206;DHT22;3644;53.480;10.004;2023-02-12T09:37:18;10.40;99.90
7206;DHT22;3644;53.480;10.004;2023-02-12T09:39:43;10.50;99.90
7206;DHT22;3644;53.480;10.004;2023-02-12T09:42:32;10.50;99.90
7206;DHT22;3644;53.480;10.004;2023-02-12T09:47:43;10.80;99.90
7206;DHT22;3644;53.480;10.004;2023-02-12T09:53:02;10.70;99.90
7206;DHT22;3644;53.480;10.004;2023-02-12T09:55:30;10.70;99.90
7206;DHT22;3644;53.480;10.004;2023-02-12T09:57:59;10.90;99.90
7206;DHT22;3644;53.480;10.004;2023-02-12T10:00:28;10.90;99.90
7206;DHT22;3644;53.480;10.004;2023-02-12T10:02:59;11.00;99.90
7206;DHT22;3644;53.480;10.004;2023-02-12T10:05:31;10.90;99.90
7206;DHT22;3644;53.480;10.004;2023-02-12T10:08:07;11.00;99.90
7206;DHT22;3644;53.480;10.004;2023-02-12T10:11:05;11.10;99.90
7206;DHT22;3644;53.480;10.004;2023-02-12T10:19:41;11.00;99.90
7206;DHT22;3644;53.480;10.004;2023-02-12T10:22:22;11.10;99.90
7206;DHT22;3644;53.480;10.004;2023-02-12T10:27:35;11.20;99.90
7206;DHT22;3644;53.480;10.004;2023-02-12T10:30:15;11.20;99.90
7206;DHT22;3644;53.480;10.004;2023-02-12T10:32:42;11.10;99.90
7206;DHT22;3644;53.480;10.004;2023-02-12T10:35:17;11.20;99.90
7206;DHT22;3644;53.480;10.004;2023-02-12T10:37:55;11.30;99.90
7206;DHT22;3644;53.480;10.004;2023-02-12T10:40:32;11.20;99.90
7206;DHT22;3644;53.480;10.004;2023-02-12T10:43:00;11.30;99.90
7206;DHT22;3644;53.480;10.004;2023-02-12T10:45:36;11.20;99.90
7206;DHT22;3644;53.480;10.004;2023-02-12T10:50:49;11.20;99.90
7206;DHT22;3644;53.480;10.004;2023-02-12T10:53:20;11.20;99.90
7206;DHT22;3644;53.480;10.004;2023-02-12T10:55:46;11.00;99.90
7206;DHT22;3644;53.480;10.004;2023-02-12T10:58:30;11.10;99.90
7206;DHT22;3644;53.480;10.004;2023-02-12T11:00:57;11.10;99.90
7206;DHT22;3644;53.480;10.004;2023-02-12T11:03:28;11.10;99.90
7206;DHT22;3644;53.480;10.004;2023-02-12T11:05:54;11.10;99.90
7206;DHT22;3644;53.480;10.004;2023-02-12T11:08:35;10.90;99.90
7206;DHT22;3644;53.480;10.004;2023-02-12T11:11:11;10.80;99.90
7206;DHT22;3644;53.480;10.004;2023-02-12T11:13:39;11.00;99.90
7206;DHT22;3644;53.480;10.004;2023-02-12T11:16:06;11.00;99.90
7206;DHT22;3644;53.480;10.004;2023-02-12T11:18:32;11.00;99.90
7206;DHT22;3644;53.480;10.004;2023-02-12T11:23:27;11.20;99.90
7206;DHT22;3644;53.480;10.004;2023-02-12T11:28:27;11.20;99.90
7206;DHT22;3644;53.480;10.004;2023-02-12T11:31:00;11.30;99.90
7206;DHT22;3644;53.480;10.004;2023-02-12T11:33:34;11.30;99.90
7206;DHT22;3644;53.480;10.004;2023-02-12T11:36:18;11.10;99.90
7206;DHT22;3644;53.480;10.004;2023-02-12T11:38:54;11.10;99.90
7206;DHT22;3644;53.480;10.004;2023-02-12T11:41:33;11.10;99.90
7206;DHT22;3644;53.480;10.004;2023-02-12T11:44:07;11.10;99.90
7206;DHT22;3644;53.480;10.004;2023-02-12T11:46:34;11.10;99.90
7206;DHT22;3644;53.480;10.004;2023-02-12T11:49:00;11.00;99.90
7206;DHT22;3644;53.480;10.004;2023-02-12T11:51:30;10.90;99.90
7206;DHT22;3644;53.480;10.004;2023-02-12T11:54:01;11.00;99.90
7206;DHT22;3644;53.480;10.004;2023-02-12T11:56:41;11.00;99.90
7206;DHT22;3644;53.480;10.004;2023-02-12T11:59:28;11.10;99.90
7206;DHT22;3644;53.480;10.004;2023-02-12T12:01:59;11.10;99.90
7206;DHT22;3644;53.480;10.004;2023-02-12T12:04:27;11.00;99.90
7206;DHT22;3644;53.480;10.004;2023-02-12T12:07:16;11.00;99.90
7206;DHT22;3644;53.480;10.004;2023-02-12T12:09:53;11.00;99.90
7206;DHT22;3644;53.480;10.004;2023-02-12T12:12:31;11.10;99.90
7206;DHT22;3644;53.480;10.004;2023-02-12T12:18:36;11.40;99.90
7206;DHT22;3644;53.480;10.004;2023-02-12T12:21:40;11.50;99.90
7206;DHT22;3644;53.480;10.004;2023-02-12T12:24:21;11.50;99.90
7206;DHT22;3644;53.480;10.004;2023-02-12T12:26:54;11.40;99.90
7206;DHT22;3644;53.480;10.004;2023-02-12T12:29:51;11.50;99.90
7206;DHT22;3644;53.480;10.004;2023-02-12T12:32:20;11.70;99.90
7206;DHT22;3644;53.480;10.004;2023-02-12T12:34:48;11.70;99.90
7206;DHT22;3644;53.480;10.004;2023-02-12T12:42:29;11.80;99.90
7206;DHT22;3644;53.480;10.004;2023-02-12T12:45:30;11.80;99.90
7206;DHT22;3644;53.480;10.004;2023-02-12T12:48:11;11.60;99.90
7206;DHT22;3644;53.480;10.004;2023-02-12T12:53:46;11.70;99.90
7206;DHT22;3644;53.480;10.004;2023-02-12T12:59:04;11.90;99.90
7206;DHT22;3644;53.480;10.004;2023-02-12T13:04:54;12.00;99.90
7206;DHT22;3644;53.480;10.004;2023-02-12T13:07:41;11.90;99.90
7206;DHT22;3644;53.480;10.004;2023-02-12T13:10:24;11.80;99.90
7206;DHT22;3644;53.480;10.004;2023-02-12T13:15:29;11.80;99.90
7206;DHT22;3644;53.480;10.004;2023-02-12T13:18:19;11.80;99.90
7206;DHT22;3644;53.480;10.004;2023-02-12T13:23:35;11.70;99.90
7206;DHT22;3644;53.480;10.004;2023-02-12T13:26:22;11.70;99.90
7206;DHT22;3644;53.480;10.004;2023-02-12T13:28:53;11.80;99.90
7206;DHT22;3644;53.480;10.004;2023-02-12T13:31:22;11.80;99.90
7206;DHT22;3644;53.480;10.004;2023-02-12T13:33:52;11.90;99.90
7206;DHT22;3644;53.480;10.004;2023-02-12T13:36:19;11.80;99.90
7206;DHT22;3644;53.480;10.004;2023-02-12T13:39:04;12.00;99.90
7206;DHT22;3644;53.480;10.004;2023-02-12T13:41:32;11.90;99.90
7206;DHT22;3644;53.480;10.004;2023-02-12T13:44:15;11.90;99.90
7206;DHT22;3644;53.480;10.004;2023-02-12T13:52:15;11.70;99.90
7206;DHT22;3644;53.480;10.004;2023-02-12T13:57:27;11.60;99.90
7206;DHT22;3644;53.480;10.004;2023-02-12T13:59:54;11.40;99.90
7206;DHT22;3644;53.480;10.004;2023-02-12T14:04:59;11.20;99.90
7206;DHT22;3644;53.480;10.004;2023-02-12T14:08:00;11.10;99.90
7206;DHT22;3644;53.480;10.004;2023-02-12T14:10:36;11.20;99.90
7206;DHT22;3644;53.480;10.004;2023-02-12T14:13:29;11.30;99.90
7206;DHT22;3644;53.480;10.004;2023-02-12T14:16:19;11.40;99.90
7206;DHT22;3644;53.480;10.004;2023-02-12T14:18:44;11.60;99.90
7206;DHT22;3644;53.480;10.004;2023-02-12T14:23:35;11.50;99.90
7206;DHT22;3644;53.480;10.004;2023-02-12T14:28:52;11.70;99.90
7206;DHT22;3644;53.480;10.004;2023-02-12T14:33:49;11.60;99.90
7206;DHT22;3644;53.480;10.004;2023-02-12T14:38:59;11.20;99.90
7206;DHT22;3644;53.480;10.004;2023-02-12T14:41:31;11.00;99.90
7206;DHT22;3644;53.480;10.004;2023-02-12T14:46:58;11.10;99.90
7206;DHT22;3644;53.480;10.004;2023-02-12T14:49:38;11.10;99.90
7206;DHT22;3644;53.480;10.004;2023-02-12T14:57:38;11.50;99.90
7206;DHT22;3644;53.480;10.004;2023-02-12T15:00:19;11.50;99.90
7206;DHT22;3644;53.480;10.004;2023-02-12T15:02:56;11.50;99.90
7206;DHT22;3644;53.480;10.004;2023-02-12T15:08:43;11.40;99.90
7206;DHT22;3644;53.480;10.004;2023-02-12T15:11:42;11.40;99.90
7206;DHT22;3644;53.480;10.004;2023-02-12T15:14:23;11.20;99.90
7206;DHT22;3644;53.480;10.004;2023-02-12T15:16:58;11.20;99.90
7206;DHT22;3644;53.480;10.004;2023-02-12T15:19:56;11.30;99.90
7206;DHT22;3644;53.480;10.004;2023-02-12T15:22:30;11.20;99.90
7206;DHT22;3644;53.480;10.004;2023-02-12T15:25:28;11.30;99.90
7206;DHT22;3644;53.480;10.004;2023-02-12T15:27:57;11.20;99.90
7206;DHT22;3644;53.480;10.004;2023-02-12T15:30:31;11.00;99.90
7206;DHT22;3644;53.480;10.004;2023-02-12T15:32:59;11.00;99.90
7206;DHT22;3644;53.480;10.004;2023-02-12T15:35:30;11.10;99.90
7206;DHT22;3644;53.480;10.004;2023-02-12T15:37:57;11.10;99.90
7206;DHT22;3644;53.480;10.004;2023-02-12T15:40:27;11.10;99.90
7206;DHT22;3644;53.480;10.004;2023-02-12T15:43:05;11.10;99.90
7206;DHT22;3644;53.480;10.004;2023-02-12T15:45:35;11.10;99.90
7206;DHT22;3644;53.480;10.004;2023-02-12T15:48:18;11.10;99.90
7206;DHT22;3644;53.480;10.004;2023-02-12T15:50:47;11.10;99.90
7206;DHT22;3644;53.480;10.004;2023-02-12T15:53:14;11.00;99.90
7206;DHT22;3644;53.480;10.004;2023-02-12T15:55:43;11.00;99.90
7206;DHT22;3644;53.480;10.004;2023-02-12T15:58:27;11.10;99.90
7206;DHT22;3644;53.480;10.004;2023-02-12T16:00:59;11.00;99.90
7206;DHT22;3644;53.480;10.004;2023-02-12T16:03:31;10.90;99.90
7206;DHT22;3644;53.480;10.004;2023-02-12T16:06:06;10.80;99.90
7206;DHT22;3644;53.480;10.004;2023-02-12T16:08:36;10.70;99.90
7206;DHT22;3644;53.480;10.004;2023-02-12T16:11:03;10.80;99.90
7206;DHT22;3644;53.480;10.004;2023-02-12T16:14:00;10.60;99.90
7206;DHT22;3644;53.480;10.004;2023-02-12T16:16:29;10.50;99.90
7206;DHT22;3644;53.480;10.004;2023-02-12T16:19:18;10.50;99.90
7206;DHT22;3644;53.480;10.004;2023-02-12T16:21:48;10.50;99.90
7206;DHT22;3644;53.480;10.004;2023-02-12T16:26:46;10.60;99.90
7206;DHT22;3644;53.480;10.004;2023-02-12T16:29:15;10.60;99.90
7206;DHT22;3644;53.480;10.004;2023-02-12T16:31:56;10.60;99.90
7206;DHT22;3644;53.480;10.004;2023-02-12T16:34:32;10.50;99.90
7206;DHT22;3644;53.480;10.004;2023-02-12T16:36:58;10.60;99.90
7206;DHT22;3644;53.480;10.004;2023-02-12T16:40:05;10.50;99.90
7206;DHT22;3644;53.480;10.004;2023-02-12T16:42:27;10.50;99.90
7206;DHT22;3644;53.480;10.004;2023-02-12T16:44:54;10.50;99.90
7206;DHT22;3644;53.480;10.004;2023-02-12T16:47:22;10.60;99.90
7206;DHT22;3644;53.480;10.004;2023-02-12T16:49:58;10.60;99.90
7206;DHT22;3644;53.480;10.004;2023-02-12T16:52:37;10.60;99.90
7206;DHT22;3644;53.480;10.004;2023-02-12T16:55:05;10.60;99.90
7206;DHT22;3644;53.480;10.004;2023-02-12T16:57:35;10.60;99.90
7206;DHT22;3644;53.480;10.004;2023-02-12T17:00:03;10.60;99.90
7206;DHT22;3644;53.480;10.004;2023-02-12T17:02:29;10.60;99.90
7206;DHT22;3644;53.480;10.004;2023-02-12T17:04:55;10.50;99.90
7206;DHT22;3644;53.480;10.004;2023-02-12T17:07:25;10.60;99.90
7206;DHT22;3644;53.480;10.004;2023-02-12T17:09:53;10.70;99.90
7206;DHT22;3644;53.480;10.004;2023-02-12T17:12:19;10.80;99.90
7206;DHT22;3644;53.480;10.004;2023-02-12T17:14:45;10.80;99.90
7206;DHT22;3644;53.480;10.004;2023-02-12T17:17:10;10.90;99.90
7206;DHT22;3644;53.480;10.004;2023-02-12T17:19:36;10.70;99.90
7206;DHT22;3644;53.480;10.004;2023-02-12T17:22:02;10.60;99.90
7206;DHT22;3644;53.480;10.004;2023-02-12T17:24:30;10.50;99.90
7206;DHT22;3644;53.480;10.004;2023-02-12T17:26:56;10.40;99.90
7206;DHT22;3644;53.480;10.004;2023-02-12T17:29:23;10.40;99.90
7206;DHT22;3644;53.480;10.004;2023-02-12T17:31:49;10.40;99.90
7206;DHT22;3644;53.480;10.004;2023-02-12T17:34:18;10.30;99.90
7206;DHT22;3644;53.480;10.004;2023-02-12T17:36:43;10.30;99.90
7206;DHT22;3644;53.480;10.004;2023-02-12T17:39:11;10.30;99.90
7206;DHT22;3644;53.480;10.004;2023-02-12T17:41:36;10.20;99.90
7206;DHT22;3644;53.480;10.004;2023-02-12T17:44:02;10.20;99.90
7206;DHT22;3644;53.480;10.004;2023-02-12T17:46:28;10.20;99.90
7206;DHT22;3644;53.480;10.004;2023-02-12T17:48:55;10.20;99.90
7206;DHT22;3644;53.480;10.004;2023-02-12T17:51:21;10.10;99.90
7206;DHT22;3644;53.480;10.004;2023-02-12T17:53:47;10.10;99.90
7206;DHT22;3644;53.480;10.004;2023-02-12T17:56:15;10.20;99.90
7206;DHT22;3644;53.480;10.004;2023-02-12T17:58:41;10.20;99.90
7206;DHT22;3644;53.480;10.004;2023-02-12T18:01:09;10.10;99.90
7206;DHT22;3644;53.480;10.004;2023-02-12T18:03:35;10.10;99.90
7206;DHT22;3644;53.480;10.004;2023-02-12T18:06:02;10.10;99.90
7206;DHT22;3644;53.480;10.004;2023-02-12T18:08:28;10.20;99.90
7206;DHT22;3644;53.480;10.004;2023-02-12T18:10:53;10.10;99.90
7206;DHT22;3644;53.480;10.004;2023-02-12T18:13:19;10.10;99.90
7206;DHT22;3644;53.480;10.004;2023-02-12T18:15:45;10.00;99.90